createdAt,value
2019-02-17T00:00:31.945Z,82.89
2019-02-17T00:03:03.173Z,82.10
2019-02-17T00:05:34.341Z,82.39
2019-02-17T00:08:06.292Z,82.63
2019-02-17T00:10:37.086Z,82.93
2019-02-17T00:13:08.134Z,83.08
2019-02-17T00:15:39.159Z,82.96
2019-02-17T00:18:09.969Z,83.14
2019-02-17T00:20:40.804Z,82.80
2019-02-17T00:23:11.908Z,82.63
2019-02-17T00:25:43.166Z,82.64
2019-02-17T00:28:14.047Z,82.80
2019-02-17T00:30:44.940Z,82.89
2019-02-17T00:33:16.317Z,83.22
2019-02-17T00:35:47.357Z,84.11
2019-02-17T00:38:18.811Z,83.95
2019-02-17T00:40:49.610Z,83.70
2019-02-17T00:43:20.861Z,84.49
2019-02-17T00:45:51.668Z,84.44
2019-02-17T00:48:22.784Z,84.00
2019-02-17T00:50:53.960Z,84.29
2019-02-17T00:53:25.027Z,83.95
2019-02-17T00:55:55.823Z,83.84
2019-02-17T00:58:26.841Z,84.62
2019-02-17T01:00:57.642Z,85.45
2019-02-17T01:03:28.676Z,85.08
2019-02-17T01:05:59.599Z,85.29
2019-02-17T01:08:30.689Z,85.11
2019-02-17T01:11:01.473Z,85.20
2019-02-17T01:13:32.511Z,85.52
2019-02-17T01:16:03.297Z,85.18
2019-02-17T01:18:34.333Z,84.90
2019-02-17T01:21:05.193Z,85.95
2019-02-17T01:23:36.000Z,85.54
2019-02-17T01:26:06.785Z,85.37
2019-02-17T01:28:37.727Z,85.06
2019-02-17T01:31:09.380Z,84.70
2019-02-17T01:33:40.202Z,84.73
2019-02-17T01:36:11.072Z,84.96
2019-02-17T01:38:41.896Z,84.94
2019-02-17T01:41:13.014Z,85.13
2019-02-17T01:43:43.835Z,85.37
2019-02-17T01:46:14.642Z,85.87
2019-02-17T01:48:45.758Z,85.98
2019-02-17T01:51:16.907Z,85.85
2019-02-17T01:53:48.056Z,85.95
2019-02-17T01:56:19.084Z,86.04
2019-02-17T01:58:50.124Z,86.12
2019-02-17T02:01:21.231Z,86.13
2019-02-17T02:03:52.134Z,86.17
2019-02-17T02:06:23.304Z,85.18
2019-02-17T02:08:54.690Z,84.96
2019-02-17T02:11:26.898Z,84.65
2019-02-17T02:13:59.184Z,84.82
2019-02-17T02:16:30.058Z,83.95
2019-02-17T02:19:01.357Z,84.33
2019-02-17T02:21:32.378Z,84.58
2019-02-17T02:24:03.758Z,84.51
2019-02-17T02:26:34.778Z,85.11
2019-02-17T02:29:05.945Z,85.27
2019-02-17T02:31:37.275Z,84.93
2019-02-17T02:34:08.880Z,84.67
2019-02-17T02:36:39.682Z,84.69
2019-02-17T02:39:11.036Z,84.76
2019-02-17T02:41:41.832Z,84.91
2019-02-17T02:44:12.744Z,84.90
2019-02-17T02:46:44.711Z,85.21
2019-02-17T02:49:15.830Z,85.48
2019-02-17T02:51:46.866Z,85.60
2019-02-17T02:54:18.963Z,85.86
2019-02-17T02:56:50.082Z,86.22
2019-02-17T02:59:21.148Z,86.01
2019-02-17T03:01:52.562Z,85.52
2019-02-17T03:04:23.392Z,86.08
2019-02-17T03:06:56.841Z,86.50
2019-02-17T03:09:28.097Z,87.19
2019-02-17T03:11:58.919Z,87.37
2019-02-17T03:14:29.825Z,88.03
2019-02-17T03:17:01.198Z,87.72
2019-02-17T03:19:32.686Z,87.46
2019-02-17T03:22:03.524Z,87.38
2019-02-17T03:24:35.373Z,87.21
2019-02-17T03:27:06.731Z,87.42
2019-02-17T03:29:38.027Z,87.80
2019-02-17T03:32:12.001Z,88.43
2019-02-17T03:34:43.556Z,88.86
2019-02-17T03:37:14.611Z,88.65
2019-02-17T03:39:45.818Z,88.83
2019-02-17T03:42:17.086Z,89.27
2019-02-17T03:44:48.217Z,89.41
2019-02-17T03:47:20.055Z,89.55
2019-02-17T03:49:51.453Z,89.54
2019-02-17T03:52:23.880Z,89.65
2019-02-17T03:54:55.109Z,89.82
2019-02-17T03:57:26.245Z,89.84
2019-02-17T03:59:57.065Z,89.98
2019-02-17T04:02:27.941Z,89.90
2019-02-17T04:04:58.999Z,90.01
2019-02-17T04:07:29.813Z,89.76
2019-02-17T04:10:00.657Z,89.80
2019-02-17T04:12:31.561Z,89.71
2019-02-17T04:15:02.698Z,90.69
2019-02-17T04:17:34.194Z,90.64
2019-02-17T04:20:05.262Z,90.85
2019-02-17T04:22:36.522Z,90.85
2019-02-17T04:25:07.410Z,90.83
2019-02-17T04:27:38.231Z,91.03
2019-02-17T04:30:09.219Z,90.99
2019-02-17T04:32:40.289Z,91.44
2019-02-17T04:35:11.535Z,91.77
2019-02-17T04:37:42.649Z,92.18
2019-02-17T04:40:13.898Z,92.11
2019-02-17T04:42:44.704Z,92.45
2019-02-17T04:45:15.671Z,92.64
2019-02-17T04:47:46.486Z,92.96
2019-02-17T04:50:17.409Z,92.84
2019-02-17T04:52:48.523Z,92.48
2019-02-17T04:55:19.823Z,92.76
2019-02-17T04:57:50.711Z,92.82
2019-02-17T05:00:21.708Z,92.88
2019-02-17T05:02:52.743Z,93.05
2019-02-17T05:05:23.697Z,93.15
2019-02-17T05:07:54.626Z,93.21
2019-02-17T05:10:26.260Z,93.39
2019-02-17T05:12:57.990Z,93.87
2019-02-17T05:15:29.058Z,93.85
2019-02-17T05:18:00.169Z,93.64
2019-02-17T05:20:30.985Z,93.70
2019-02-17T05:23:01.862Z,93.95
2019-02-17T05:25:32.917Z,93.36
2019-02-17T05:28:04.195Z,93.51
2019-02-17T05:30:35.447Z,93.81
2019-02-17T05:33:06.249Z,93.76
2019-02-17T05:35:37.622Z,93.95
2019-02-17T05:38:09.333Z,94.16
2019-02-17T05:40:40.807Z,94.27
2019-02-17T05:43:11.753Z,94.45
2019-02-17T05:45:42.656Z,93.73
2019-02-17T05:48:13.466Z,93.90
2019-02-17T05:50:44.609Z,93.48
2019-02-17T05:53:16.158Z,92.92
2019-02-17T05:55:47.420Z,92.32
2019-02-17T05:58:18.265Z,92.52
2019-02-17T06:00:49.571Z,92.48
2019-02-17T06:03:20.458Z,92.63
2019-02-17T06:05:51.595Z,92.79
2019-02-17T06:08:22.804Z,92.11
2019-02-17T06:10:53.871Z,91.98
2019-02-17T06:13:24.946Z,92.07
2019-02-17T06:15:55.835Z,92.30
2019-02-17T06:18:26.711Z,92.58
2019-02-17T06:20:58.146Z,92.39
2019-02-17T06:23:30.180Z,92.37
2019-02-17T06:26:02.276Z,92.17
2019-02-17T06:28:33.111Z,92.03
2019-02-17T06:31:13.662Z,92.07
2019-02-17T06:33:37.138Z,91.96
2019-02-17T06:36:07.969Z,91.90
2019-02-17T06:38:38.934Z,92.04
2019-02-17T06:41:10.469Z,91.61
2019-02-17T06:43:41.840Z,91.19
2019-02-17T06:46:16.470Z,91.12
2019-02-17T06:48:47.432Z,90.91
2019-02-17T06:51:18.260Z,91.14
2019-02-17T06:53:49.141Z,90.81
2019-02-17T06:56:39.274Z,90.88
2019-02-17T06:59:10.302Z,90.83
2019-02-17T07:01:41.202Z,91.10
2019-02-17T07:04:12.275Z,90.75
2019-02-17T07:06:50.504Z,90.33
2019-02-17T07:09:21.610Z,89.99
2019-02-17T07:11:52.804Z,90.03
2019-02-17T07:14:23.856Z,90.14
2019-02-17T07:16:54.824Z,90.23
2019-02-17T07:19:25.688Z,89.92
2019-02-17T07:21:56.690Z,89.89
2019-02-17T07:24:27.733Z,90.61
2019-02-17T07:26:58.821Z,90.29
2019-02-17T07:29:29.627Z,90.55
2019-02-17T07:32:00.701Z,90.47
2019-02-17T07:34:31.746Z,90.84
2019-02-17T07:37:02.931Z,90.18
2019-02-17T07:39:33.747Z,89.85
2019-02-17T07:42:04.657Z,89.41
2019-02-17T07:44:35.555Z,88.19
2019-02-17T07:47:06.450Z,86.10
2019-02-17T07:49:38.518Z,86.71
2019-02-17T07:52:09.765Z,87.06
2019-02-17T07:54:40.883Z,86.81
2019-02-17T07:57:12.026Z,86.95
2019-02-17T07:59:42.830Z,86.81
2019-02-17T08:02:13.888Z,86.21
2019-02-17T08:04:44.762Z,86.53
2019-02-17T08:07:15.935Z,86.43
2019-02-17T08:09:46.980Z,86.09
2019-02-17T08:12:18.138Z,84.78
2019-02-17T08:14:49.036Z,84.64
2019-02-17T08:17:20.106Z,84.48
2019-02-17T08:19:51.292Z,84.44
2019-02-17T08:22:22.076Z,84.31
2019-02-17T08:24:53.082Z,84.81
2019-02-17T08:27:24.037Z,84.72
2019-02-17T08:29:55.208Z,84.38
2019-02-17T08:32:26.155Z,83.13
2019-02-17T08:34:57.006Z,82.77
2019-02-17T08:37:28.651Z,81.80
2019-02-17T08:39:59.454Z,81.17
2019-02-17T08:42:30.330Z,82.11
2019-02-17T08:45:01.377Z,81.84
2019-02-17T08:47:32.501Z,82.41
2019-02-17T08:50:03.625Z,81.64
2019-02-17T08:52:34.523Z,81.58
2019-02-17T08:55:05.802Z,80.72
2019-02-17T08:57:38.077Z,80.14
2019-02-17T09:00:10.766Z,79.51
2019-02-17T09:02:41.695Z,79.00
2019-02-17T09:05:13.299Z,78.48
2019-02-17T09:07:44.262Z,77.44
2019-02-17T09:10:15.378Z,77.34
2019-02-17T09:12:46.270Z,77.28
2019-02-17T09:15:17.571Z,77.30
2019-02-17T09:17:48.753Z,77.43
2019-02-17T09:20:19.554Z,76.27
2019-02-17T09:22:50.403Z,75.16
2019-02-17T09:25:21.594Z,75.12
2019-02-17T09:27:52.628Z,74.54
2019-02-17T09:30:23.430Z,73.89
2019-02-17T09:32:54.487Z,73.74
2019-02-17T09:35:26.554Z,73.55
2019-02-17T09:37:57.675Z,73.07
2019-02-17T09:40:28.972Z,73.28
2019-02-17T09:43:00.409Z,73.30
2019-02-17T09:45:31.362Z,73.30
2019-02-17T09:48:02.657Z,72.16
2019-02-17T09:50:33.769Z,71.49
2019-02-17T09:53:05.209Z,70.09
2019-02-17T09:55:36.344Z,70.40
2019-02-17T09:58:07.236Z,69.81
2019-02-17T10:00:38.517Z,69.64
2019-02-17T10:03:09.657Z,69.86
2019-02-17T10:05:40.730Z,67.13
2019-02-17T10:08:11.647Z,64.92
2019-02-17T10:10:42.779Z,64.33
2019-02-17T10:13:14.210Z,65.17
2019-02-17T10:15:45.104Z,64.27
2019-02-17T10:18:16.234Z,62.01
2019-02-17T10:20:47.594Z,60.12
2019-02-17T10:23:19.139Z,61.77
2019-02-17T10:25:50.193Z,58.08
2019-02-17T10:28:21.320Z,58.24
2019-02-17T10:30:52.469Z,57.24
2019-02-17T10:33:23.361Z,58.13
2019-02-17T10:35:54.246Z,57.66
2019-02-17T10:38:25.077Z,57.03
2019-02-17T10:40:56.151Z,58.22
2019-02-17T10:43:27.301Z,55.78
2019-02-17T10:45:58.651Z,57.53
2019-02-17T10:48:29.675Z,57.20
2019-02-17T10:51:00.793Z,57.19
2019-02-17T10:53:31.888Z,57.66
2019-02-17T10:56:03.160Z,57.77
2019-02-17T10:58:34.229Z,57.44
2019-02-17T11:01:05.157Z,57.34
2019-02-17T11:03:36.300Z,57.49
2019-02-17T11:06:07.181Z,57.52
2019-02-17T11:08:38.242Z,57.54
2019-02-17T11:11:09.550Z,57.25
2019-02-17T11:13:41.367Z,57.49
2019-02-17T11:16:12.695Z,57.25
2019-02-17T11:18:43.724Z,57.63
2019-02-17T11:21:14.843Z,58.03
2019-02-17T11:23:45.860Z,57.33
2019-02-17T11:26:16.980Z,57.67
2019-02-17T11:28:47.997Z,57.81
2019-02-17T11:31:19.118Z,57.20
2019-02-17T11:33:50.256Z,57.35
2019-02-17T11:36:21.425Z,57.45
2019-02-17T11:38:52.571Z,56.05
2019-02-17T11:41:23.697Z,57.02
2019-02-17T11:43:54.615Z,56.42
2019-02-17T11:46:25.609Z,55.60
2019-02-17T11:48:57.423Z,56.97
2019-02-17T11:51:28.477Z,56.47
2019-02-17T11:53:59.584Z,55.72
2019-02-17T11:56:30.583Z,55.59
2019-02-17T11:59:01.415Z,54.84
2019-02-17T12:01:32.437Z,53.69
2019-02-17T12:04:03.450Z,53.12
2019-02-17T12:06:34.294Z,53.12
2019-02-17T12:09:06.192Z,53.07
2019-02-17T12:11:38.652Z,53.33
2019-02-17T12:14:09.794Z,52.00
2019-02-17T12:16:40.548Z,52.00
2019-02-17T12:19:11.601Z,52.44
2019-02-17T12:21:59.488Z,52.44
2019-02-17T12:24:35.467Z,52.29
2019-02-17T12:27:17.877Z,52.73
2019-02-17T12:29:52.602Z,52.22
2019-02-17T12:32:28.563Z,52.50
2019-02-17T12:34:59.387Z,51.29
2019-02-17T12:37:30.428Z,52.35
2019-02-17T12:40:01.498Z,52.90
2019-02-17T12:42:33.410Z,51.26
2019-02-17T12:45:04.553Z,51.47
2019-02-17T12:47:35.846Z,51.30
2019-02-17T12:50:08.274Z,50.31
2019-02-17T12:52:46.776Z,50.69
2019-02-17T12:55:12.344Z,49.27
2019-02-17T12:57:43.229Z,49.04
2019-02-17T13:00:16.390Z,48.53
2019-02-17T13:02:47.279Z,47.59
2019-02-17T13:05:18.336Z,47.76
2019-02-17T13:07:49.149Z,47.46
2019-02-17T13:10:19.972Z,47.82
2019-02-17T13:12:50.860Z,48.69
2019-02-17T13:15:21.747Z,47.97
2019-02-17T13:17:53.078Z,47.95
2019-02-17T13:20:23.928Z,48.11
2019-02-17T13:22:54.999Z,47.66
2019-02-17T13:25:26.065Z,47.04
2019-02-17T13:27:57.734Z,46.29
2019-02-17T13:30:28.877Z,43.81
2019-02-17T13:33:00.972Z,43.21
2019-02-17T13:35:31.870Z,44.10
2019-02-17T13:38:02.888Z,42.60
2019-02-17T13:40:33.739Z,42.32
2019-02-17T13:43:04.863Z,40.69
2019-02-17T13:45:36.076Z,40.52
2019-02-17T13:48:07.045Z,40.74
2019-02-17T13:50:38.203Z,41.46
2019-02-17T13:53:12.067Z,41.06
2019-02-17T13:55:43.094Z,41.23
2019-02-17T13:58:14.148Z,39.62
2019-02-17T14:00:44.968Z,39.02
2019-02-17T14:03:15.859Z,39.37
2019-02-17T14:05:46.920Z,37.38
2019-02-17T14:08:18.284Z,36.04
2019-02-17T14:10:49.598Z,35.54
2019-02-17T14:13:21.694Z,37.32
2019-02-17T14:15:52.848Z,36.46
2019-02-17T14:18:23.777Z,35.96
2019-02-17T14:20:54.670Z,34.44
2019-02-17T14:23:26.203Z,36.10
2019-02-17T14:25:57.017Z,35.86
2019-02-17T14:28:28.200Z,36.00
2019-02-17T14:30:59.274Z,36.88
2019-02-17T14:33:30.428Z,35.21
2019-02-17T14:36:01.480Z,35.90
2019-02-17T14:38:32.532Z,35.40
2019-02-17T14:41:03.515Z,36.56
2019-02-17T14:43:34.627Z,35.52
2019-02-17T14:46:05.763Z,37.11
2019-02-17T14:48:36.571Z,37.39
2019-02-17T14:51:07.696Z,37.85
2019-02-17T14:53:38.825Z,37.72
2019-02-17T14:56:10.105Z,38.21
2019-02-17T14:58:41.985Z,36.37
2019-02-17T15:01:12.918Z,37.40
2019-02-17T15:03:43.944Z,37.38
2019-02-17T15:06:14.770Z,36.88
2019-02-17T15:08:46.731Z,36.78
2019-02-17T15:11:18.189Z,36.01
2019-02-17T15:13:49.856Z,35.24
2019-02-17T15:16:21.363Z,34.89
2019-02-17T15:18:52.548Z,35.54
2019-02-17T15:21:23.490Z,35.51
2019-02-17T15:23:54.625Z,35.60
2019-02-17T15:26:25.449Z,36.01
2019-02-17T15:28:56.251Z,36.23
2019-02-17T15:31:27.080Z,35.71
2019-02-17T15:33:58.109Z,36.92
2019-02-17T15:36:29.246Z,36.33
2019-02-17T15:39:00.362Z,36.56
2019-02-17T15:41:32.795Z,36.90
2019-02-17T15:44:03.854Z,37.17
2019-02-17T15:46:34.799Z,37.30
2019-02-17T15:49:05.847Z,37.59
2019-02-17T15:51:37.368Z,37.99
2019-02-17T15:54:08.621Z,38.55
2019-02-17T15:56:39.868Z,39.38
2019-02-17T15:59:11.002Z,38.48
2019-02-17T16:01:42.191Z,39.59
2019-02-17T16:04:13.305Z,42.97
2019-02-17T16:06:44.127Z,44.68
2019-02-17T16:09:15.905Z,45.84
2019-02-17T16:11:46.975Z,45.01
2019-02-17T16:14:18.256Z,45.50
2019-02-17T16:16:49.743Z,46.14
2019-02-17T16:19:20.635Z,49.39
2019-02-17T16:21:51.919Z,48.09
2019-02-17T16:24:22.795Z,49.29
2019-02-17T16:26:53.766Z,49.12
2019-02-17T16:29:24.571Z,49.97
2019-02-17T16:31:55.463Z,51.34
2019-02-17T16:34:26.330Z,50.76
2019-02-17T16:36:57.709Z,52.23
2019-02-17T16:39:29.079Z,53.25
2019-02-17T16:42:01.018Z,53.45
2019-02-17T16:44:31.976Z,54.20
2019-02-17T16:47:03.077Z,54.15
2019-02-17T16:49:34.004Z,55.39
2019-02-17T16:52:04.882Z,56.10
2019-02-17T16:54:36.025Z,55.87
2019-02-17T16:57:07.374Z,56.18
2019-02-17T16:59:38.269Z,56.78
2019-02-17T17:02:09.278Z,56.24
2019-02-17T17:04:48.040Z,57.55
2019-02-17T17:07:12.978Z,58.05
2019-02-17T17:09:43.854Z,59.39
2019-02-17T17:12:15.041Z,59.57
2019-02-17T17:14:45.906Z,59.60
2019-02-17T17:17:16.964Z,59.42
2019-02-17T17:19:47.852Z,60.18
2019-02-17T17:22:18.669Z,59.88
2019-02-17T17:24:49.705Z,59.76
2019-02-17T17:27:21.247Z,59.68
2019-02-17T17:29:52.356Z,59.71
2019-02-17T17:32:23.341Z,60.21
2019-02-17T17:34:58.865Z,60.79
2019-02-17T17:37:26.968Z,61.36
2019-02-17T17:39:58.073Z,61.65
2019-02-17T17:42:29.211Z,60.82
2019-02-17T17:45:01.105Z,61.55
2019-02-17T17:47:33.792Z,61.98
2019-02-17T17:50:05.037Z,62.14
2019-02-17T17:52:35.858Z,62.14
2019-02-17T17:55:07.073Z,62.50
2019-02-17T17:57:38.278Z,62.64
2019-02-17T18:00:10.771Z,62.18
2019-02-17T18:02:45.442Z,62.46
2019-02-17T18:05:14.847Z,62.97
2019-02-17T18:07:45.868Z,62.71
2019-02-17T18:10:16.775Z,63.13
2019-02-17T18:12:47.620Z,63.23
2019-02-17T18:15:18.650Z,62.81
2019-02-17T18:17:54.324Z,63.02
2019-02-17T18:20:22.580Z,62.97
2019-02-17T18:22:53.562Z,63.98
2019-02-17T18:25:24.602Z,64.22
2019-02-17T18:27:56.109Z,64.29
2019-02-17T18:30:26.927Z,63.27
2019-02-17T18:32:58.139Z,62.16
2019-02-17T18:35:29.071Z,62.50
2019-02-17T18:38:00.599Z,62.77
2019-02-17T18:40:31.657Z,62.56
2019-02-17T18:43:02.992Z,61.82
2019-02-17T18:45:34.132Z,61.92
2019-02-17T18:48:05.091Z,61.62
2019-02-17T18:50:36.214Z,62.47
2019-02-17T18:53:07.172Z,62.75
2019-02-17T18:55:38.013Z,62.82
2019-02-17T18:58:09.075Z,62.66
2019-02-17T19:00:40.354Z,63.86
2019-02-17T19:03:11.237Z,63.82
2019-02-17T19:05:42.370Z,64.29
2019-02-17T19:08:13.240Z,64.48
2019-02-17T19:10:44.350Z,63.51
2019-02-17T19:13:15.927Z,63.21
2019-02-17T19:15:46.998Z,62.70
2019-02-17T19:18:18.663Z,62.34
2019-02-17T19:20:49.731Z,62.73
2019-02-17T19:23:20.645Z,62.90
2019-02-17T19:25:51.622Z,63.40
2019-02-17T19:28:22.709Z,63.71
2019-02-17T19:30:53.843Z,63.76
2019-02-17T19:33:24.635Z,63.85
2019-02-17T19:35:55.788Z,64.08
2019-02-17T19:38:27.196Z,63.97
2019-02-17T19:40:59.259Z,64.21
2019-02-17T19:43:31.474Z,64.45
2019-02-17T19:46:02.535Z,64.69
2019-02-17T19:48:33.652Z,64.89
2019-02-17T19:51:04.638Z,64.73
2019-02-17T19:53:35.737Z,65.23
2019-02-17T19:56:07.524Z,65.58
2019-02-17T19:58:38.701Z,65.66
2019-02-17T20:01:09.843Z,65.53
2019-02-17T20:03:47.499Z,65.93
2019-02-17T20:06:20.559Z,65.80
2019-02-17T20:08:51.348Z,65.04
2019-02-17T20:11:22.244Z,65.35
2019-02-17T20:13:53.035Z,65.28
2019-02-17T20:16:24.403Z,65.35
2019-02-17T20:18:55.479Z,65.45
2019-02-17T20:21:27.395Z,65.71
2019-02-17T20:23:58.422Z,66.33
2019-02-17T20:26:29.728Z,65.81
2019-02-17T20:29:01.614Z,66.36
2019-02-17T20:31:32.461Z,65.44
2019-02-17T20:34:03.402Z,66.02
2019-02-17T20:36:34.288Z,66.70
2019-02-17T20:39:06.455Z,66.14
2019-02-17T20:41:38.023Z,66.55
2019-02-17T20:44:09.207Z,67.09
2019-02-17T20:46:40.728Z,68.19
2019-02-17T20:49:11.580Z,69.21
2019-02-17T20:51:42.747Z,69.48
2019-02-17T20:54:13.770Z,69.41
2019-02-17T20:56:44.919Z,69.23
2019-02-17T20:59:15.793Z,69.88
2019-02-17T21:01:46.596Z,69.48
2019-02-17T21:04:17.458Z,68.60
2019-02-17T21:06:48.488Z,68.57
2019-02-17T21:09:19.898Z,67.41
2019-02-17T21:11:50.957Z,68.40
2019-02-17T21:14:21.820Z,65.99
2019-02-17T21:16:52.637Z,66.34
2019-02-17T21:19:24.693Z,66.27
2019-02-17T21:21:56.001Z,67.08
2019-02-17T21:24:27.028Z,67.43
2019-02-17T21:26:58.173Z,68.12
2019-02-17T21:29:29.449Z,68.49
2019-02-17T21:32:00.348Z,68.84
2019-02-17T21:34:31.552Z,68.96
2019-02-17T21:37:02.690Z,69.38
2019-02-17T21:39:33.561Z,69.54
2019-02-17T21:42:05.207Z,69.80
2019-02-17T21:44:36.330Z,69.45
2019-02-17T21:47:07.499Z,69.74
2019-02-17T21:49:38.868Z,70.12
2019-02-17T21:52:09.680Z,70.03
2019-02-17T21:54:40.479Z,70.45
2019-02-17T21:57:11.368Z,69.61
2019-02-17T21:59:42.233Z,69.89
2019-02-17T22:02:13.408Z,69.71
2019-02-17T22:04:44.442Z,70.38
2019-02-17T22:07:15.749Z,70.36
2019-02-17T22:09:46.980Z,70.59
2019-02-17T22:12:18.954Z,70.38
2019-02-17T22:14:49.744Z,70.66
2019-02-17T22:17:21.134Z,70.46
2019-02-17T22:19:52.236Z,70.32
2019-02-17T22:22:23.188Z,69.95
2019-02-17T22:24:54.343Z,69.54
2019-02-17T22:27:25.157Z,69.57
2019-02-17T22:29:56.630Z,70.12
2019-02-17T22:32:27.797Z,69.72
2019-02-17T22:34:58.664Z,68.77
2019-02-17T22:37:29.553Z,69.34
2019-02-17T22:40:00.492Z,68.41
2019-02-17T22:42:31.447Z,68.72
2019-02-17T22:45:02.577Z,68.39
2019-02-17T22:47:33.669Z,68.70
2019-02-17T22:50:04.684Z,68.75
2019-02-17T22:52:35.485Z,68.82
2019-02-17T22:55:07.421Z,67.78
2019-02-17T22:57:38.307Z,68.03
2019-02-17T23:00:19.560Z,67.14
2019-02-17T23:02:52.196Z,66.57
2019-02-17T23:05:23.228Z,67.03
2019-02-17T23:07:54.102Z,67.07
2019-02-17T23:10:25.117Z,68.60
2019-02-17T23:12:56.284Z,68.82
2019-02-17T23:15:27.388Z,68.67
2019-02-17T23:17:58.470Z,69.33
2019-02-17T23:20:29.495Z,69.67
2019-02-17T23:23:00.590Z,71.00
2019-02-17T23:25:31.375Z,70.77
2019-02-17T23:28:02.211Z,70.35
2019-02-17T23:30:33.321Z,70.59
2019-02-17T23:33:04.274Z,69.20
2019-02-17T23:35:35.291Z,70.11
2019-02-17T23:38:06.433Z,71.00
2019-02-17T23:40:37.319Z,70.11
2019-02-17T23:43:08.437Z,69.87
2019-02-17T23:45:39.859Z,70.56
2019-02-17T23:48:10.893Z,72.29
2019-02-17T23:50:41.939Z,72.21
2019-02-17T23:53:12.747Z,73.08
2019-02-17T23:55:43.953Z,73.75
2019-02-17T23:58:15.077Z,74.71
